sensor_id;sensor_type;location;lat;lon;timestamp;P1;durP1;ratioP1;P2;durP2;ratioP2
146;SDS011;45999;48.808;9.182;2022-09-03T00:01:49;1.80;;;1.50;;
146;SDS011;45999;48.808;9.182;2022-09-03T00:07:12;2.43;;;1.30;;
146;SDS011;45999;48.808;9.182;2022-09-03T00:09:46;2.20;;;1.30;;
146;SDS011;45999;48.808;9.182;2022-09-03T00:12:18;2.20;;;1.70;;
146;SDS011;45999;48.808;9.182;2022-09-03T00:14:52;2.83;;;1.30;;
146;SDS011;45999;48.808;9.182;2022-09-03T00:17:37;3.33;;;1.63;;
146;SDS011;45999;48.808;9.182;2022-09-03T00:20:09;1.60;;;0.97;;
146;SDS011;45999;48.808;9.182;2022-09-03T00:22:40;1.83;;;1.40;;
146;SDS011;45999;48.808;9.182;2022-09-03T00:25:10;1.33;;;1.23;;
146;SDS011;45999;48.808;9.182;2022-09-03T00:27:39;3.03;;;1.90;;
146;SDS011;45999;48.808;9.182;2022-09-03T00:30:10;2.30;;;1.70;;
146;SDS011;45999;48.808;9.182;2022-09-03T00:32:41;1.83;;;1.73;;
146;SDS011;45999;48.808;9.182;2022-09-03T00:35:16;1.93;;;1.57;;
146;SDS011;45999;48.808;9.182;2022-09-03T00:37:56;2.43;;;1.60;;
146;SDS011;45999;48.808;9.182;2022-09-03T00:46:15;2.30;;;1.60;;
146;SDS011;45999;48.808;9.182;2022-09-03T00:51:32;2.93;;;1.90;;
146;SDS011;45999;48.808;9.182;2022-09-03T00:54:12;1.80;;;1.70;;
146;SDS011;45999;48.808;9.182;2022-09-03T00:57:18;2.20;;;1.60;;
146;SDS011;45999;48.808;9.182;2022-09-03T01:10:55;3.97;;;1.67;;
146;SDS011;45999;48.808;9.182;2022-09-03T01:13:38;2.17;;;1.40;;
146;SDS011;45999;48.808;9.182;2022-09-03T01:22:18;1.80;;;1.10;;
146;SDS011;45999;48.808;9.182;2022-09-03T01:27:43;2.57;;;1.40;;
146;SDS011;45999;48.808;9.182;2022-09-03T01:30:12;4.47;;;1.50;;
146;SDS011;45999;48.808;9.182;2022-09-03T01:32:50;2.07;;;1.30;;
146;SDS011;45999;48.808;9.182;2022-09-03T01:43:24;1.63;;;1.47;;
146;SDS011;45999;48.808;9.182;2022-09-03T01:46:12;2.97;;;1.53;;
146;SDS011;45999;48.808;9.182;2022-09-03T01:51:20;2.47;;;1.33;;
146;SDS011;45999;48.808;9.182;2022-09-03T01:59:45;3.20;;;1.40;;
146;SDS011;45999;48.808;9.182;2022-09-03T02:02:20;2.00;;;1.33;;
146;SDS011;45999;48.808;9.182;2022-09-03T02:07:32;2.90;;;1.20;;
146;SDS011;45999;48.808;9.182;2022-09-03T02:10:10;2.83;;;1.50;;
146;SDS011;45999;48.808;9.182;2022-09-03T02:12:39;1.60;;;1.50;;
146;SDS011;45999;48.808;9.182;2022-09-03T02:15:10;1.50;;;1.40;;
146;SDS011;45999;48.808;9.182;2022-09-03T02:17:43;1.77;;;1.53;;
146;SDS011;45999;48.808;9.182;2022-09-03T02:20:15;3.30;;;1.60;;
146;SDS011;45999;48.808;9.182;2022-09-03T02:22:45;3.03;;;1.40;;
146;SDS011;45999;48.808;9.182;2022-09-03T02:25:14;2.87;;;1.40;;
146;SDS011;45999;48.808;9.182;2022-09-03T02:27:42;2.17;;;1.70;;
146;SDS011;45999;48.808;9.182;2022-09-03T02:30:09;2.30;;;1.53;;
146;SDS011;45999;48.808;9.182;2022-09-03T02:32:36;1.87;;;1.33;;
146;SDS011;45999;48.808;9.182;2022-09-03T02:35:03;4.40;;;1.40;;
146;SDS011;45999;48.808;9.182;2022-09-03T02:37:30;1.90;;;1.30;;
146;SDS011;45999;48.808;9.182;2022-09-03T02:39:56;2.13;;;1.60;;
146;SDS011;45999;48.808;9.182;2022-09-03T02:42:22;3.13;;;1.40;;
146;SDS011;45999;48.808;9.182;2022-09-03T02:44:51;1.47;;;1.30;;
146;SDS011;45999;48.808;9.182;2022-09-03T02:47:22;2.80;;;1.53;;
146;SDS011;45999;48.808;9.182;2022-09-03T02:49:54;2.13;;;1.60;;
146;SDS011;45999;48.808;9.182;2022-09-03T02:52:21;3.20;;;1.30;;
146;SDS011;45999;48.808;9.182;2022-09-03T02:54:47;3.43;;;1.60;;
146;SDS011;45999;48.808;9.182;2022-09-03T02:57:14;2.10;;;1.20;;
146;SDS011;45999;48.808;9.182;2022-09-03T02:59:42;2.00;;;1.60;;
146;SDS011;45999;48.808;9.182;2022-09-03T03:02:10;3.40;;;1.47;;
146;SDS011;45999;48.808;9.182;2022-09-03T03:04:37;2.27;;;1.50;;
146;SDS011;45999;48.808;9.182;2022-09-03T03:07:05;2.00;;;1.70;;
146;SDS011;45999;48.808;9.182;2022-09-03T03:09:32;4.80;;;1.53;;
146;SDS011;45999;48.808;9.182;2022-09-03T03:11:58;3.97;;;1.50;;
146;SDS011;45999;48.808;9.182;2022-09-03T03:14:25;2.90;;;1.40;;
146;SDS011;45999;48.808;9.182;2022-09-03T03:16:51;2.73;;;1.80;;
146;SDS011;45999;48.808;9.182;2022-09-03T03:19:17;2.90;;;1.50;;
146;SDS011;45999;48.808;9.182;2022-09-03T03:21:44;1.83;;;1.57;;
146;SDS011;45999;48.808;9.182;2022-09-03T03:24:10;2.40;;;1.37;;
146;SDS011;45999;48.808;9.182;2022-09-03T03:26:37;2.60;;;1.60;;
146;SDS011;45999;48.808;9.182;2022-09-03T03:29:03;2.50;;;1.60;;
146;SDS011;45999;48.808;9.182;2022-09-03T03:31:30;3.07;;;1.50;;
146;SDS011;45999;48.808;9.182;2022-09-03T03:33:58;2.03;;;1.60;;
146;SDS011;45999;48.808;9.182;2022-09-03T03:36:27;2.43;;;1.40;;
146;SDS011;45999;48.808;9.182;2022-09-03T03:38:56;1.80;;;1.57;;
146;SDS011;45999;48.808;9.182;2022-09-03T03:41:33;3.57;;;1.60;;
146;SDS011;45999;48.808;9.182;2022-09-03T03:44:03;2.50;;;1.60;;
146;SDS011;45999;48.808;9.182;2022-09-03T03:46:32;1.57;;;1.33;;
146;SDS011;45999;48.808;9.182;2022-09-03T03:49:04;1.97;;;1.60;;
146;SDS011;45999;48.808;9.182;2022-09-03T03:51:31;2.53;;;1.60;;
146;SDS011;45999;48.808;9.182;2022-09-03T03:53:58;2.10;;;1.40;;
146;SDS011;45999;48.808;9.182;2022-09-03T03:56:25;1.63;;;1.50;;
146;SDS011;45999;48.808;9.182;2022-09-03T03:58:52;3.27;;;1.70;;
146;SDS011;45999;48.808;9.182;2022-09-03T04:01:20;2.40;;;1.50;;
146;SDS011;45999;48.808;9.182;2022-09-03T04:03:48;2.73;;;1.60;;
146;SDS011;45999;48.808;9.182;2022-09-03T04:06:16;2.33;;;1.73;;
146;SDS011;45999;48.808;9.182;2022-09-03T04:08:44;2.20;;;1.67;;
146;SDS011;45999;48.808;9.182;2022-09-03T04:11:16;3.37;;;1.63;;
146;SDS011;45999;48.808;9.182;2022-09-03T04:13:44;2.00;;;1.47;;
146;SDS011;45999;48.808;9.182;2022-09-03T04:16:19;2.13;;;1.90;;
146;SDS011;45999;48.808;9.182;2022-09-03T04:18:50;1.73;;;1.60;;
146;SDS011;45999;48.808;9.182;2022-09-03T04:21:19;5.50;;;2.07;;
146;SDS011;45999;48.808;9.182;2022-09-03T04:23:49;2.43;;;1.60;;
146;SDS011;45999;48.808;9.182;2022-09-03T04:26:18;2.20;;;1.60;;
146;SDS011;45999;48.808;9.182;2022-09-03T04:28:55;2.37;;;1.50;;
146;SDS011;45999;48.808;9.182;2022-09-03T04:31:23;2.87;;;1.50;;
146;SDS011;45999;48.808;9.182;2022-09-03T04:33:49;1.77;;;1.33;;
146;SDS011;45999;48.808;9.182;2022-09-03T04:36:17;2.80;;;1.50;;
146;SDS011;45999;48.808;9.182;2022-09-03T04:38:45;1.60;;;1.50;;
146;SDS011;45999;48.808;9.182;2022-09-03T04:41:17;2.50;;;1.47;;
146;SDS011;45999;48.808;9.182;2022-09-03T04:43:46;1.90;;;1.27;;
146;SDS011;45999;48.808;9.182;2022-09-03T04:46:14;1.43;;;1.33;;
146;SDS011;45999;48.808;9.182;2022-09-03T04:48:41;1.67;;;1.50;;
146;SDS011;45999;48.808;9.182;2022-09-03T04:51:11;2.83;;;1.27;;
146;SDS011;45999;48.808;9.182;2022-09-03T04:53:40;1.67;;;1.57;;
146;SDS011;45999;48.808;9.182;2022-09-03T04:56:13;1.87;;;1.10;;
146;SDS011;45999;48.808;9.182;2022-09-03T04:58:44;1.60;;;1.50;;
146;SDS011;45999;48.808;9.182;2022-09-03T05:01:13;3.27;;;1.53;;
146;SDS011;45999;48.808;9.182;2022-09-03T05:03:41;3.33;;;1.73;;
146;SDS011;45999;48.808;9.182;2022-09-03T05:06:08;1.30;;;1.20;;
146;SDS011;45999;48.808;9.182;2022-09-03T05:08:36;2.73;;;1.47;;
146;SDS011;45999;48.808;9.182;2022-09-03T05:11:03;1.30;;;1.30;;
146;SDS011;45999;48.808;9.182;2022-09-03T05:13:30;1.50;;;1.40;;
146;SDS011;45999;48.808;9.182;2022-09-03T05:15:58;3.33;;;1.57;;
146;SDS011;45999;48.808;9.182;2022-09-03T05:18:25;1.30;;;1.20;;
146;SDS011;45999;48.808;9.182;2022-09-03T05:21:05;3.63;;;1.40;;
146;SDS011;45999;48.808;9.182;2022-09-03T05:23:40;2.97;;;1.50;;
146;SDS011;45999;48.808;9.182;2022-09-03T05:26:10;2.00;;;1.10;;
146;SDS011;45999;48.808;9.182;2022-09-03T05:28:38;1.70;;;1.50;;
146;SDS011;45999;48.808;9.182;2022-09-03T05:31:13;1.73;;;1.60;;
146;SDS011;45999;48.808;9.182;2022-09-03T05:33:48;1.40;;;1.30;;
146;SDS011;45999;48.808;9.182;2022-09-03T05:36:17;2.57;;;1.70;;
146;SDS011;45999;48.808;9.182;2022-09-03T05:38:47;1.60;;;1.50;;
146;SDS011;45999;48.808;9.182;2022-09-03T05:41:15;2.07;;;1.30;;
146;SDS011;45999;48.808;9.182;2022-09-03T05:43:43;1.80;;;1.50;;
146;SDS011;45999;48.808;9.182;2022-09-03T05:46:10;4.00;;;1.63;;
146;SDS011;45999;48.808;9.182;2022-09-03T05:48:40;2.00;;;1.67;;
146;SDS011;45999;48.808;9.182;2022-09-03T05:51:11;1.40;;;1.30;;
146;SDS011;45999;48.808;9.182;2022-09-03T05:53:40;5.83;;;1.70;;
146;SDS011;45999;48.808;9.182;2022-09-03T05:56:09;3.53;;;1.73;;
146;SDS011;45999;48.808;9.182;2022-09-03T05:58:37;3.63;;;1.57;;
146;SDS011;45999;48.808;9.182;2022-09-03T06:01:13;1.60;;;1.50;;
146;SDS011;45999;48.808;9.182;2022-09-03T06:03:44;3.00;;;2.10;;
146;SDS011;45999;48.808;9.182;2022-09-03T06:06:12;2.57;;;1.80;;
146;SDS011;45999;48.808;9.182;2022-09-03T06:08:39;2.43;;;1.73;;
146;SDS011;45999;48.808;9.182;2022-09-03T06:11:08;2.47;;;1.60;;
146;SDS011;45999;48.808;9.182;2022-09-03T06:13:36;2.17;;;1.70;;
146;SDS011;45999;48.808;9.182;2022-09-03T06:16:05;2.80;;;1.77;;
146;SDS011;45999;48.808;9.182;2022-09-03T06:18:32;3.37;;;1.40;;
146;SDS011;45999;48.808;9.182;2022-09-03T06:21:00;2.20;;;1.43;;
146;SDS011;45999;48.808;9.182;2022-09-03T06:23:30;2.20;;;1.57;;
146;SDS011;45999;48.808;9.182;2022-09-03T06:26:01;2.27;;;1.60;;
146;SDS011;45999;48.808;9.182;2022-09-03T06:28:28;1.83;;;1.50;;
146;SDS011;45999;48.808;9.182;2022-09-03T06:30:58;1.70;;;1.60;;
146;SDS011;45999;48.808;9.182;2022-09-03T06:33:26;3.70;;;1.40;;
146;SDS011;45999;48.808;9.182;2022-09-03T06:35:54;1.50;;;1.40;;
146;SDS011;45999;48.808;9.182;2022-09-03T06:38:23;1.93;;;1.70;;
146;SDS011;45999;48.808;9.182;2022-09-03T06:40:57;2.17;;;1.50;;
146;SDS011;45999;48.808;9.182;2022-09-03T06:43:26;2.47;;;1.90;;
146;SDS011;45999;48.808;9.182;2022-09-03T06:46:03;2.67;;;1.60;;
146;SDS011;45999;48.808;9.182;2022-09-03T06:48:37;1.77;;;1.67;;
146;SDS011;45999;48.808;9.182;2022-09-03T06:53:36;3.10;;;1.80;;
146;SDS011;45999;48.808;9.182;2022-09-03T06:56:11;1.67;;;1.57;;
146;SDS011;45999;48.808;9.182;2022-09-03T06:58:39;1.77;;;1.67;;
146;SDS011;45999;48.808;9.182;2022-09-03T07:03:39;2.03;;;1.57;;
146;SDS011;45999;48.808;9.182;2022-09-03T07:06:08;2.23;;;1.80;;
146;SDS011;45999;48.808;9.182;2022-09-03T07:08:39;2.60;;;1.70;;
146;SDS011;45999;48.808;9.182;2022-09-03T07:11:07;3.80;;;1.97;;
146;SDS011;45999;48.808;9.182;2022-09-03T07:13:36;3.43;;;1.80;;
146;SDS011;45999;48.808;9.182;2022-09-03T07:16:06;2.20;;;2.00;;
146;SDS011;45999;48.808;9.182;2022-09-03T07:18:34;3.93;;;2.00;;
146;SDS011;45999;48.808;9.182;2022-09-03T07:21:06;2.80;;;1.70;;
146;SDS011;45999;48.808;9.182;2022-09-03T07:23:34;2.50;;;1.90;;
146;SDS011;45999;48.808;9.182;2022-09-03T07:26:04;2.63;;;1.90;;
146;SDS011;45999;48.808;9.182;2022-09-03T07:28:33;3.43;;;2.00;;
146;SDS011;45999;48.808;9.182;2022-09-03T07:31:02;5.53;;;2.03;;
146;SDS011;45999;48.808;9.182;2022-09-03T07:33:31;2.57;;;1.87;;
146;SDS011;45999;48.808;9.182;2022-09-03T07:36:05;2.57;;;1.80;;
146;SDS011;45999;48.808;9.182;2022-09-03T07:38:38;3.43;;;1.90;;
146;SDS011;45999;48.808;9.182;2022-09-03T07:41:06;3.60;;;1.93;;
146;SDS011;45999;48.808;9.182;2022-09-03T07:43:35;3.83;;;2.00;;
146;SDS011;45999;48.808;9.182;2022-09-03T07:46:07;1.93;;;1.70;;
146;SDS011;45999;48.808;9.182;2022-09-03T07:48:38;4.10;;;2.27;;
146;SDS011;45999;48.808;9.182;2022-09-03T07:51:06;1.90;;;1.80;;
146;SDS011;45999;48.808;9.182;2022-09-03T07:53:33;2.57;;;1.80;;
146;SDS011;45999;48.808;9.182;2022-09-03T07:56:01;1.60;;;1.50;;
146;SDS011;45999;48.808;9.182;2022-09-03T07:58:29;4.47;;;2.00;;
146;SDS011;45999;48.808;9.182;2022-09-03T08:00:57;2.67;;;1.73;;
146;SDS011;45999;48.808;9.182;2022-09-03T08:03:24;3.27;;;2.20;;
146;SDS011;45999;48.808;9.182;2022-09-03T08:05:50;3.07;;;2.00;;
146;SDS011;45999;48.808;9.182;2022-09-03T08:08:17;3.77;;;2.10;;
146;SDS011;45999;48.808;9.182;2022-09-03T08:10:43;3.70;;;2.30;;
146;SDS011;45999;48.808;9.182;2022-09-03T08:13:10;2.30;;;2.10;;
146;SDS011;45999;48.808;9.182;2022-09-03T08:15:36;2.10;;;2.00;;
146;SDS011;45999;48.808;9.182;2022-09-03T08:18:04;4.03;;;2.30;;
146;SDS011;45999;48.808;9.182;2022-09-03T08:20:30;6.00;;;2.33;;
146;SDS011;45999;48.808;9.182;2022-09-03T08:23:00;2.47;;;2.27;;
146;SDS011;45999;48.808;9.182;2022-09-03T08:25:28;3.13;;;2.40;;
146;SDS011;45999;48.808;9.182;2022-09-03T08:27:57;2.53;;;2.33;;
146;SDS011;45999;48.808;9.182;2022-09-03T08:30:24;2.43;;;2.20;;
146;SDS011;45999;48.808;9.182;2022-09-03T08:32:51;2.40;;;2.20;;
146;SDS011;45999;48.808;9.182;2022-09-03T08:35:18;2.50;;;2.30;;
146;SDS011;45999;48.808;9.182;2022-09-03T08:37:45;4.97;;;2.60;;
146;SDS011;45999;48.808;9.182;2022-09-03T08:40:13;2.30;;;2.10;;
146;SDS011;45999;48.808;9.182;2022-09-03T08:42:42;5.23;;;2.80;;
146;SDS011;45999;48.808;9.182;2022-09-03T08:45:12;3.80;;;2.30;;
146;SDS011;45999;48.808;9.182;2022-09-03T08:47:43;2.70;;;2.50;;
146;SDS011;45999;48.808;9.182;2022-09-03T08:53:12;3.20;;;2.70;;
146;SDS011;45999;48.808;9.182;2022-09-03T08:58:24;2.60;;;2.40;;
146;SDS011;45999;48.808;9.182;2022-09-03T09:00:59;3.23;;;2.37;;
146;SDS011;45999;48.808;9.182;2022-09-03T09:06:28;4.63;;;2.70;;
146;SDS011;45999;48.808;9.182;2022-09-03T09:22:40;3.37;;;2.80;;
146;SDS011;45999;48.808;9.182;2022-09-03T09:25:18;3.40;;;2.80;;
146;SDS011;45999;48.808;9.182;2022-09-03T09:27:47;3.47;;;2.70;;
146;SDS011;45999;48.808;9.182;2022-09-03T09:30:17;3.83;;;2.90;;
146;SDS011;45999;48.808;9.182;2022-09-03T09:32:44;3.03;;;2.73;;
146;SDS011;45999;48.808;9.182;2022-09-03T09:35:12;3.23;;;2.90;;
146;SDS011;45999;48.808;9.182;2022-09-03T09:37:47;3.70;;;3.10;;
146;SDS011;45999;48.808;9.182;2022-09-03T09:40:37;3.27;;;2.97;;
146;SDS011;45999;48.808;9.182;2022-09-03T09:45:40;3.33;;;3.03;;
146;SDS011;45999;48.808;9.182;2022-09-03T09:48:27;5.73;;;3.50;;
146;SDS011;45999;48.808;9.182;2022-09-03T09:51:31;3.10;;;2.80;;
146;SDS011;45999;48.808;9.182;2022-09-03T09:56:37;3.00;;;2.80;;
146;SDS011;45999;48.808;9.182;2022-09-03T09:59:04;3.10;;;2.90;;
146;SDS011;45999;48.808;9.182;2022-09-03T10:01:32;5.63;;;3.47;;
146;SDS011;45999;48.808;9.182;2022-09-03T10:04:11;4.50;;;3.20;;
146;SDS011;45999;48.808;9.182;2022-09-03T10:06:55;3.80;;;3.40;;
146;SDS011;45999;48.808;9.182;2022-09-03T10:09:29;3.97;;;2.80;;
146;SDS011;45999;48.808;9.182;2022-09-03T10:14:36;2.80;;;2.50;;
146;SDS011;45999;48.808;9.182;2022-09-03T10:20:31;5.73;;;2.50;;
146;SDS011;45999;48.808;9.182;2022-09-03T10:25:36;2.73;;;2.53;;
146;SDS011;45999;48.808;9.182;2022-09-03T10:28:14;3.13;;;2.60;;
146;SDS011;45999;48.808;9.182;2022-09-03T10:30:47;2.60;;;2.40;;
146;SDS011;45999;48.808;9.182;2022-09-03T10:33:33;2.70;;;2.50;;
146;SDS011;45999;48.808;9.182;2022-09-03T10:36:07;2.80;;;2.60;;
146;SDS011;45999;48.808;9.182;2022-09-03T10:38:47;2.53;;;2.33;;
146;SDS011;45999;48.808;9.182;2022-09-03T10:41:42;3.03;;;2.40;;
146;SDS011;45999;48.808;9.182;2022-09-03T10:50:21;3.07;;;2.60;;
146;SDS011;45999;48.808;9.182;2022-09-03T10:53:13;3.07;;;2.30;;
146;SDS011;45999;48.808;9.182;2022-09-03T10:58:56;2.90;;;2.70;;
146;SDS011;45999;48.808;9.182;2022-09-03T11:01:46;2.80;;;2.60;;
146;SDS011;45999;48.808;9.182;2022-09-03T11:07:35;5.82;;;2.83;;
146;SDS011;45999;48.808;9.182;2022-09-03T11:12:49;4.72;;;2.88;;
146;SDS011;45999;48.808;9.182;2022-09-03T11:15:29;2.70;;;2.50;;
146;SDS011;45999;48.808;9.182;2022-09-03T11:20:58;5.15;;;2.80;;
146;SDS011;45999;48.808;9.182;2022-09-03T11:23:29;3.03;;;2.72;;
146;SDS011;45999;48.808;9.182;2022-09-03T11:26:04;4.93;;;3.10;;
146;SDS011;45999;48.808;9.182;2022-09-03T11:31:57;2.80;;;2.60;;
146;SDS011;45999;48.808;9.182;2022-09-03T11:40:12;3.55;;;3.25;;
146;SDS011;45999;48.808;9.182;2022-09-03T11:42:41;4.68;;;2.95;;
146;SDS011;45999;48.808;9.182;2022-09-03T11:47:54;3.03;;;2.83;;
146;SDS011;45999;48.808;9.182;2022-09-03T11:50:30;2.97;;;2.77;;
146;SDS011;45999;48.808;9.182;2022-09-03T11:53:08;5.10;;;3.10;;
146;SDS011;45999;48.808;9.182;2022-09-03T12:01:04;4.13;;;2.80;;
146;SDS011;45999;48.808;9.182;2022-09-03T12:14:41;2.77;;;2.57;;
146;SDS011;45999;48.808;9.182;2022-09-03T12:19:58;3.07;;;2.67;;
146;SDS011;45999;48.808;9.182;2022-09-03T12:22:26;4.23;;;2.63;;
146;SDS011;45999;48.808;9.182;2022-09-03T12:24:55;3.57;;;2.83;;
146;SDS011;45999;48.808;9.182;2022-09-03T12:27:39;3.07;;;2.77;;
146;SDS011;45999;48.808;9.182;2022-09-03T12:30:14;3.10;;;2.83;;
146;SDS011;45999;48.808;9.182;2022-09-03T12:32:43;3.33;;;2.60;;
146;SDS011;45999;48.808;9.182;2022-09-03T12:35:11;3.50;;;3.10;;
146;SDS011;45999;48.808;9.182;2022-09-03T12:37:44;4.43;;;2.93;;
146;SDS011;45999;48.808;9.182;2022-09-03T12:40:27;2.90;;;2.70;;
146;SDS011;45999;48.808;9.182;2022-09-03T12:42:55;3.47;;;2.80;;
146;SDS011;45999;48.808;9.182;2022-09-03T12:45:47;3.33;;;2.80;;
146;SDS011;45999;48.808;9.182;2022-09-03T12:48:16;4.53;;;3.00;;
146;SDS011;45999;48.808;9.182;2022-09-03T12:50:45;2.53;;;2.33;;
146;SDS011;45999;48.808;9.182;2022-09-03T12:53:14;2.13;;;1.93;;
146;SDS011;45999;48.808;9.182;2022-09-03T12:55:53;2.10;;;1.90;;
146;SDS011;45999;48.808;9.182;2022-09-03T13:06:19;4.70;;;2.63;;
146;SDS011;45999;48.808;9.182;2022-09-03T13:08:49;7.60;;;2.70;;
146;SDS011;45999;48.808;9.182;2022-09-03T13:11:20;5.53;;;2.70;;
146;SDS011;45999;48.808;9.182;2022-09-03T13:13:55;5.77;;;2.67;;
146;SDS011;45999;48.808;9.182;2022-09-03T13:27:16;3.27;;;2.97;;
146;SDS011;45999;48.808;9.182;2022-09-03T13:43:44;3.13;;;1.63;;
146;SDS011;45999;48.808;9.182;2022-09-03T13:46:38;2.90;;;1.90;;
146;SDS011;45999;48.808;9.182;2022-09-03T13:50:01;4.07;;;2.03;;
146;SDS011;45999;48.808;9.182;2022-09-03T13:52:47;2.20;;;1.80;;
146;SDS011;45999;48.808;9.182;2022-09-03T14:01:12;2.53;;;2.30;;
146;SDS011;45999;48.808;9.182;2022-09-03T14:03:55;4.43;;;2.20;;
146;SDS011;45999;48.808;9.182;2022-09-03T14:12:01;2.77;;;1.80;;
146;SDS011;45999;48.808;9.182;2022-09-03T14:19:54;1.97;;;1.77;;
146;SDS011;45999;48.808;9.182;2022-09-03T14:25:21;2.87;;;1.97;;
146;SDS011;45999;48.808;9.182;2022-09-03T14:27:50;3.87;;;2.03;;
146;SDS011;45999;48.808;9.182;2022-09-03T14:36:25;3.23;;;2.00;;
146;SDS011;45999;48.808;9.182;2022-09-03T14:50:40;1.77;;;1.67;;
146;SDS011;45999;48.808;9.182;2022-09-03T14:56:21;1.87;;;1.77;;
146;SDS011;45999;48.808;9.182;2022-09-03T14:59:54;1.80;;;1.60;;
146;SDS011;45999;48.808;9.182;2022-09-03T15:10:23;1.67;;;1.57;;
146;SDS011;45999;48.808;9.182;2022-09-03T15:12:52;2.17;;;1.37;;
146;SDS011;45999;48.808;9.182;2022-09-03T15:20:49;2.20;;;1.30;;
146;SDS011;45999;48.808;9.182;2022-09-03T15:23:19;2.23;;;1.40;;
146;SDS011;45999;48.808;9.182;2022-09-03T15:31:53;2.53;;;1.60;;
146;SDS011;45999;48.808;9.182;2022-09-03T15:34:42;3.03;;;1.83;;
146;SDS011;45999;48.808;9.182;2022-09-03T15:37:46;2.47;;;1.80;;
146;SDS011;45999;48.808;9.182;2022-09-03T15:40:31;2.83;;;2.07;;
146;SDS011;45999;48.808;9.182;2022-09-03T15:46:03;5.73;;;2.03;;
146;SDS011;45999;48.808;9.182;2022-09-03T15:48:44;1.77;;;1.60;;
146;SDS011;45999;48.808;9.182;2022-09-03T15:53:56;3.30;;;2.37;;
146;SDS011;45999;48.808;9.182;2022-09-03T15:56:30;2.20;;;2.00;;
146;SDS011;45999;48.808;9.182;2022-09-03T15:59:05;2.40;;;2.00;;
146;SDS011;45999;48.808;9.182;2022-09-03T16:01:44;2.20;;;2.00;;
146;SDS011;45999;48.808;9.182;2022-09-03T16:06:55;2.40;;;1.73;;
146;SDS011;45999;48.808;9.182;2022-09-03T16:12:16;2.93;;;2.00;;
146;SDS011;45999;48.808;9.182;2022-09-03T16:14:57;2.57;;;2.17;;
146;SDS011;45999;48.808;9.182;2022-09-03T16:17:33;2.17;;;1.90;;
146;SDS011;45999;48.808;9.182;2022-09-03T16:25:09;3.23;;;2.20;;
146;SDS011;45999;48.808;9.182;2022-09-03T16:28:04;3.63;;;1.97;;
146;SDS011;45999;48.808;9.182;2022-09-03T16:33:22;3.40;;;2.37;;
146;SDS011;45999;48.808;9.182;2022-09-03T16:36:17;2.30;;;2.00;;
146;SDS011;45999;48.808;9.182;2022-09-03T16:44:41;3.20;;;2.57;;
146;SDS011;45999;48.808;9.182;2022-09-03T17:18:50;2.63;;;2.13;;
146;SDS011;45999;48.808;9.182;2022-09-03T17:21:46;4.33;;;2.40;;
146;SDS011;45999;48.808;9.182;2022-09-03T17:33:16;2.47;;;2.07;;
146;SDS011;45999;48.808;9.182;2022-09-03T17:44:22;3.40;;;2.50;;
146;SDS011;45999;48.808;9.182;2022-09-03T17:55:14;4.47;;;2.97;;
146;SDS011;45999;48.808;9.182;2022-09-03T18:00:59;3.87;;;2.57;;
146;SDS011;45999;48.808;9.182;2022-09-03T18:03:51;3.93;;;2.93;;
146;SDS011;45999;48.808;9.182;2022-09-03T18:09:05;4.27;;;2.67;;
146;SDS011;45999;48.808;9.182;2022-09-03T18:14:37;3.63;;;2.47;;
146;SDS011;45999;48.808;9.182;2022-09-03T18:19:59;3.03;;;2.30;;
146;SDS011;45999;48.808;9.182;2022-09-03T18:22:49;3.20;;;2.60;;
146;SDS011;45999;48.808;9.182;2022-09-03T18:25:41;3.10;;;2.30;;
146;SDS011;45999;48.808;9.182;2022-09-03T18:28:36;3.43;;;2.50;;
146;SDS011;45999;48.808;9.182;2022-09-03T18:31:24;3.07;;;2.77;;
146;SDS011;45999;48.808;9.182;2022-09-03T18:34:08;4.03;;;2.50;;
146;SDS011;45999;48.808;9.182;2022-09-03T18:36:55;3.77;;;2.40;;
146;SDS011;45999;48.808;9.182;2022-09-03T18:39:40;4.47;;;2.53;;
146;SDS011;45999;48.808;9.182;2022-09-03T18:48:43;2.97;;;2.40;;
146;SDS011;45999;48.808;9.182;2022-09-03T19:04:23;3.20;;;2.60;;
146;SDS011;45999;48.808;9.182;2022-09-03T19:07:22;2.90;;;2.40;;
146;SDS011;45999;48.808;9.182;2022-09-03T19:10:36;2.73;;;2.47;;
146;SDS011;45999;48.808;9.182;2022-09-03T19:19:55;3.33;;;2.00;;
146;SDS011;45999;48.808;9.182;2022-09-03T19:22:48;3.37;;;2.20;;
146;SDS011;45999;48.808;9.182;2022-09-03T19:25:32;3.10;;;2.47;;
146;SDS011;45999;48.808;9.182;2022-09-03T19:37:05;3.57;;;2.37;;
146;SDS011;45999;48.808;9.182;2022-09-03T19:43:36;4.30;;;2.37;;
146;SDS011;45999;48.808;9.182;2022-09-03T19:49:37;2.33;;;2.23;;
146;SDS011;45999;48.808;9.182;2022-09-03T19:55:47;2.50;;;2.30;;
146;SDS011;45999;48.808;9.182;2022-09-03T19:58:39;3.83;;;2.10;;
146;SDS011;45999;48.808;9.182;2022-09-03T20:01:28;3.30;;;2.67;;
146;SDS011;45999;48.808;9.182;2022-09-03T20:04:16;3.40;;;2.43;;
146;SDS011;45999;48.808;9.182;2022-09-03T20:07:03;3.93;;;3.30;;
146;SDS011;45999;48.808;9.182;2022-09-03T20:09:51;4.50;;;2.97;;
146;SDS011;45999;48.808;9.182;2022-09-03T20:12:38;3.37;;;3.07;;
146;SDS011;45999;48.808;9.182;2022-09-03T20:15:12;4.33;;;3.63;;
146;SDS011;45999;48.808;9.182;2022-09-03T20:20:14;6.30;;;4.30;;
146;SDS011;45999;48.808;9.182;2022-09-03T20:33:25;4.53;;;4.00;;
146;SDS011;45999;48.808;9.182;2022-09-03T20:36:00;4.83;;;4.03;;
146;SDS011;45999;48.808;9.182;2022-09-03T20:52:52;4.27;;;3.03;;
146;SDS011;45999;48.808;9.182;2022-09-03T20:55:31;3.93;;;2.83;;
146;SDS011;45999;48.808;9.182;2022-09-03T21:00:41;4.27;;;3.00;;
146;SDS011;45999;48.808;9.182;2022-09-03T21:03:38;4.47;;;2.97;;
146;SDS011;45999;48.808;9.182;2022-09-03T21:11:44;3.23;;;2.97;;
146;SDS011;45999;48.808;9.182;2022-09-03T21:14:21;3.40;;;2.93;;
146;SDS011;45999;48.808;9.182;2022-09-03T21:19:42;3.23;;;2.90;;
146;SDS011;45999;48.808;9.182;2022-09-03T21:25:00;3.30;;;2.97;;
146;SDS011;45999;48.808;9.182;2022-09-03T21:27:40;3.60;;;3.30;;
146;SDS011;45999;48.808;9.182;2022-09-03T21:30:13;3.83;;;3.20;;
146;SDS011;45999;48.808;9.182;2022-09-03T21:35:41;5.43;;;3.50;;
146;SDS011;45999;48.808;9.182;2022-09-03T21:38:18;4.20;;;3.27;;
146;SDS011;45999;48.808;9.182;2022-09-03T21:40:56;5.73;;;3.63;;
146;SDS011;45999;48.808;9.182;2022-09-03T21:46:18;4.50;;;3.37;;
146;SDS011;45999;48.808;9.182;2022-09-03T21:51:28;4.13;;;3.67;;
146;SDS011;45999;48.808;9.182;2022-09-03T22:02:32;4.63;;;4.13;;
146;SDS011;45999;48.808;9.182;2022-09-03T22:04:59;4.07;;;3.67;;
146;SDS011;45999;48.808;9.182;2022-09-03T22:15:54;4.90;;;4.30;;
146;SDS011;45999;48.808;9.182;2022-09-03T22:18:28;5.40;;;4.87;;
146;SDS011;45999;48.808;9.182;2022-09-03T22:23:33;8.03;;;5.23;;
146;SDS011;45999;48.808;9.182;2022-09-03T22:26:22;6.90;;;4.50;;
146;SDS011;45999;48.808;9.182;2022-09-03T22:40:09;4.80;;;4.33;;
146;SDS011;45999;48.808;9.182;2022-09-03T22:50:57;6.20;;;4.67;;
146;SDS011;45999;48.808;9.182;2022-09-03T22:54:01;6.90;;;4.73;;
146;SDS011;45999;48.808;9.182;2022-09-03T22:56:37;8.47;;;5.10;;
146;SDS011;45999;48.808;9.182;2022-09-03T23:04:35;6.00;;;4.50;;
146;SDS011;45999;48.808;9.182;2022-09-03T23:07:12;6.57;;;4.67;;
146;SDS011;45999;48.808;9.182;2022-09-03T23:09:45;6.37;;;4.40;;
146;SDS011;45999;48.808;9.182;2022-09-03T23:12:20;6.27;;;4.53;;
146;SDS011;45999;48.808;9.182;2022-09-03T23:14:56;6.13;;;4.40;;
146;SDS011;45999;48.808;9.182;2022-09-03T23:17:26;5.93;;;4.03;;
146;SDS011;45999;48.808;9.182;2022-09-03T23:19:58;4.80;;;3.93;;
146;SDS011;45999;48.808;9.182;2022-09-03T23:22:31;8.47;;;3.90;;
146;SDS011;45999;48.808;9.182;2022-09-03T23:27:54;7.17;;;4.70;;
146;SDS011;45999;48.808;9.182;2022-09-03T23:30:25;7.97;;;4.20;;
146;SDS011;45999;48.808;9.182;2022-09-03T23:32:54;4.87;;;4.20;;
146;SDS011;45999;48.808;9.182;2022-09-03T23:35:25;5.60;;;4.60;;
146;SDS011;45999;48.808;9.182;2022-09-03T23:40:38;5.50;;;4.27;;
146;SDS011;45999;48.808;9.182;2022-09-03T23:49:15;5.07;;;4.60;;
146;SDS011;45999;48.808;9.182;2022-09-03T23:52:45;5.27;;;4.20;;
146;SDS011;45999;48.808;9.182;2022-09-03T23:55:42;7.87;;;4.87;;
